Terminal Aerodrome Forecast
Issued by NWS

Home | Current Version | Previous Version | Text Only | Print | Product List | Glossary On
Versions: 1 2 3 4 5 6 7 8 9 10 11 12 13 14 15 16 17 18 19
061
FTUS44 KCRP 061325 AAA
TAFLRD
TAF AMD
KLRD 061325Z 0613/0712 VRB03KT 5SM BR SKC
      TEMPO 0613/0615 2SM BR
     FM061500 33006KT P6SM SKC
     FM062200 02007KT P6SM SKC
     FM070900 03006KT P6SM OVC011=

USA.gov is the U.S. government's official web portal to all federal, state and local government web resources and services.